Warning: Javascript must be enabled to use all the features on this page!


Page Loading - Please Wait...

Click to hideNews Bulletins

USGS 04189260 Blanchard River at Ottawa OH

PROVISIONAL DATA SUBJECT TO REVISION

Click to hidestation-specific text
Station operated in cooperation with the Village of Ottawa and the National Streamflow Information Program.
 04189260 Blanchard River at Ottawa, OH
 LOCATION.--Lat 41°01'01", long 84°02'49", Putnam County, OH, Hydrologic 
     Unit 04100008, on right bank at downstream side of Oak Street, 200 ft. upstream 
     of B&O railroad bridge, 800 ft. upstream of SR65 bridge, 1,200 ft. southeast of 
     intersection of SR65 and US RT224 in the village of Ottawa, OH.
 DRAINAGE AREA.--628 mi2.
 PERIOD OF RECORD.--October 2009 to current water year.
Want to learn more about areas near this gage that are inundated during flooding? See the USGS flood-inundation mapper.

Boating safety tips
Available Parameters Available Period
All 2 Available Parameters for this site
  
00065 Gage height 2016-01-01  2016-04-30
00060 Discharge 2009-10-01  2016-04-30

Graph
Graph w/ stats
Graph w/o stats
Graph w/ (up to 3) parms
Table
Tab-separated
Days  (7)
 

  -- or --
Begin date
 

End date
 

Summary of all available data for this site
Instantaneous-data availability statement
Gage height, feet
TIMEApr 23Apr 24Apr 25Apr 26Apr 27Apr 28Apr 29Apr 30
00:00 EDT7.57P  9.02P  7.99P  7.46P  8.22P  8.20P  8.42P  9.92P  
00:30 EDT7.63P  9.00P  7.98P  7.45P  8.24P  8.19P  8.46P  9.92P  
01:00 EDT7.69P  8.99P  7.95P  7.44P  8.26P  8.17P  8.51P  9.92P  
01:30 EDT7.76P  8.98P  7.94P  7.43P  8.28P  8.15P  8.54P  9.91P  
02:00 EDT7.85P  8.97P  7.92P  7.42P  8.31P  8.14P  8.59P  9.90P  
02:30 EDT7.92P  8.95P  7.91P  7.42P  8.33P  8.12P  8.62P  9.90P  
03:00 EDT8.01P  8.93P  7.89P  7.41P  8.35P  8.11P  8.66P  9.89P  
03:30 EDT8.10P  8.91P  7.88P  7.41P  8.36P  8.09P  8.70P  9.89P  
04:00 EDT8.18P  8.89P  7.87P  7.48P  8.38P  8.08P  8.74P  9.87P  
04:30 EDT8.25P  8.87P  7.85P  7.51P  8.39P  8.07P  8.77P  9.86P  
05:00 EDT8.34P  8.85P  7.84P  7.52P  8.40P  8.08P  8.81P  9.85P  
05:30 EDT8.41P  8.83P  7.83P  7.53P  8.42P  8.09P  8.85P  9.84P  
06:00 EDT8.48P  8.80P  7.82P  7.54P  8.43P  8.10P  8.89P  9.83P  
06:30 EDT8.54P  8.78P  7.81P  7.55P  8.44P  8.09P  8.92P  9.81P  
07:00 EDT8.61P  8.75P  7.80P  7.56P  8.45P  8.09P  8.96P  9.80P  
07:30 EDT8.66P  8.74P  7.79P  7.58P  8.45P  8.10P  8.99P  9.79P  
08:00 EDT8.71P  8.71P  7.78P  7.59P  8.46P  8.10P  9.03P  9.77P  
08:30 EDT8.75P  8.69P  7.76P  7.62P  8.46P  8.09P  9.07P  9.76P  
09:00 EDT8.79P  8.66P  7.76P  7.64P  8.47P  8.09P  9.10P  9.73P  
09:30 EDT8.82P  8.64P  7.75P  7.67P  8.47P  8.10P  9.14P  9.73P  
10:00 EDT8.84P  8.61P  7.73P  7.68P  8.47P  8.11P  9.18P  9.71P  
10:30 EDT8.86P  8.59P  7.72P  7.70P  8.49P  8.12P  9.22P  9.69P  
11:00 EDT8.87P  8.56P  7.72P  7.72P  8.48P  8.11P  9.25P  9.67P  
11:30 EDT8.90P  8.53P  7.71P  7.74P  8.48P  8.13P  9.30P  9.66P  
12:00 EDT8.91P  8.51P  7.70P  7.76P  8.48P  8.13P  9.33P  9.64P  
12:30 EDT8.92P  8.48P  7.69P  7.78P  8.48P  8.14P  9.38P  9.63P  
13:00 EDT8.93P  8.46P  7.67P  7.81P  8.47P  8.14P  9.42P  9.61P  
13:30 EDT8.94P  8.43P  7.68P  7.84P  8.47P  8.15P  9.46P  9.59P  
14:00 EDT8.95P  8.41P  7.66P  7.86P  8.47P  8.14P  9.50P  9.57P  
14:30 EDT8.95P  8.38P  7.65P  7.88P  8.47P  8.14P  9.55P  9.56P  
15:00 EDT8.97P  8.36P  7.64P  7.90P  8.45P  8.16P  9.59P  9.54P  
15:30 EDT8.97P  8.33P  7.63P  7.92P  8.45P  8.16P  9.63P  9.54P  
16:00 EDT8.98P  8.32P  7.62P  7.93P  8.43P  8.17P  9.67P  9.51P  
16:30 EDT9.00P  8.29P  7.61P  7.95P  8.43P  8.17P  9.70P  9.50P  
17:00 EDT9.00P  8.28P  7.60P  7.96P  8.42P  8.18P  9.73P  9.49P  
17:30 EDT9.01P  8.25P  7.59P  7.97P  8.40P  8.19P  9.76P  9.49P  
18:00 EDT9.02P  8.23P  7.58P  7.98P  8.40P  8.19P  9.79P   
18:30 EDT9.02P  8.20P  7.57P  8.00P  8.38P  8.20P  9.81P   
19:00 EDT9.03P  8.18P  7.56P  8.00P  8.36P  8.20P  9.83P   
19:30 EDT9.04P  8.16P  7.55P  8.02P  8.35P  8.21P  9.85P   
20:00 EDT9.04P  8.14P  7.54P  8.04P  8.34P  8.23P  9.87P   
20:30 EDT9.05P  8.12P  7.53P  8.06P  8.32P  8.23P  9.88P   
21:00 EDT9.05P  8.10P  7.52P  8.07P  8.31P  8.26P  9.89P   
21:30 EDT9.05P  8.07P  7.51P  8.10P  8.30P  8.28P  9.89P   
22:00 EDT9.05P  8.05P  7.50P  8.12P  8.28P  8.30P  9.90P   
22:30 EDT9.04P  8.04P  7.49P  8.14P  8.25P  8.33P  9.90P   
23:00 EDT9.04P  8.02P  7.48P  8.17P  8.24P  8.36P  9.91P   
23:30 EDT9.03P  8.00P  7.47P  8.19P  8.21P  8.40P  9.92P   
COUNT4848484848484836
MAX9.059.027.998.198.498.409.929.92
MIN7.578.007.477.418.218.078.429.49

Explanation
  P  Provisional data subject to revision.